KMGJ

Orange County Airport

Montgomery, New York, USA
METAR KMGJ 230254Z AUTO 19005KT 10SM OVC008 14/13 A2996 RMK AO2 SLP145 T01390128 58011
Observed Flight Rules
May-23 @ 02:54 UTC (11 minutes ago) Instrument Flight Rules
Wind Visibility Clouds
190° at 5 knots 10 miles
  • Overcast at 800' AGL
Temperatures Readings
Current 14°C / 57°F
Dewpoint 13°C / 55°F
Humidity 94%
Altimeter 29.96" Hg
Pressure 1014.5 hPa
Elevation 108
METAR KMGJ 230254Z AUTO 19005KT 10SM OVC008 14/13 A2996 RMK AO2 SLP145 T01390128 58011
Observed Flight Rules
May-23 @ 02:54 UTC
(11 minutes ago)
IFR
Wind Visibility
190° at 5 knots 10 miles
Clouds
  • Overcast at 800' AGL
Temperature Dewpoint
14°C / 57°F 13°C / 55°F
Humidity Altimeter Pressure
94% 29.96" Hg 1014.5 hPa